»·PEaware :: N924DB KBUR-KLAS

N924DB :: KBUR-KLAS

FLIGHT INFORMATION

Flight Status: Arrived
Operator: Privately registered:
United States
More flights under this callsign
Pilot: John P. (12588)
Aircraft: PIPER PA-28 CHEROKEE ARCHER
(PA28)
More flights by this aircraft type
Origin: KBUR Bob Hope-Burbank
United States
Destination: KLAS McCarran Intl
United States
More flights between these airports :: More routes between these airports
Route: +KBUR VNY3 DAG CRESO4 KLAS
File this flight plan on PilotEdge
Remarks:
Altitude:
(Current/Filed)
10,000ft
Speed:
(Current/Filed)
118kts
Departed: 26-Jul-18 03:51 PM
Arrived: 26-Jul-18 05:56 PM
Distance/Time
Traveled:
195nm/2:05
Distance/Time
To Go:
Arrived

Flight Plot

Page will automatically refresh every two minutes.

Flight plan parsing failed; only flown route is shown


Map Options




Map Legend


Flown Route
Filed Route
Departure Airport
Arrival Airport
Navaid (VOR, NDB)
Fix

Horizontal Profiles

Position Reports

Time Latitude Longitude Heading Altitude Ground
Speed
26-Jul-18 15:37 34.195742 -118.360057 180 781ft 0kts
26-Jul-18 15:38 34.195738 -118.360057 180 781ft 0kts
26-Jul-18 15:39 34.195734 -118.360057 180 781ft 0kts
26-Jul-18 15:40 34.195731 -118.360057 180 781ft 0kts
26-Jul-18 15:41 34.195727 -118.360057 180 781ft 0kts
26-Jul-18 15:42 34.196236 -118.360301 2 781ft 12kts
26-Jul-18 15:43 34.196707 -118.364837 270 781ft 15kts
26-Jul-18 15:44 34.197040 -118.368956 342 781ft 12kts
26-Jul-18 15:45 34.197246 -118.368968 2 781ft 0kts
26-Jul-18 15:46 34.197252 -118.368968 2 781ft 0kts
26-Jul-18 15:47 34.197256 -118.368968 2 781ft 0kts
26-Jul-18 15:48 34.197261 -118.368967 2 781ft 0kts
26-Jul-18 15:49 34.197265 -118.368967 2 781ft 0kts
26-Jul-18 15:50 34.197269 -118.368967 2 781ft 0kts
26-Jul-18 15:51 34.197901 -118.368491 90 781ft 12kts
26-Jul-18 15:52 34.195334 -118.344367 149 1806ft 61kts
26-Jul-18 15:53 34.180104 -118.354816 225 2709ft 78kts
26-Jul-18 15:54 34.162352 -118.376080 226 3595ft 92kts
26-Jul-18 15:55 34.147405 -118.393485 226 4419ft 89kts
26-Jul-18 15:56 34.130146 -118.415049 254 5258ft 94kts
26-Jul-18 15:57 34.148131 -118.429702 352 6055ft 95kts
26-Jul-18 15:58 34.174352 -118.431183 351 6810ft 94kts
26-Jul-18 15:59 34.201041 -118.433080 352 7453ft 97kts
26-Jul-18 16:00 34.228174 -118.434953 352 8013ft 99kts
26-Jul-18 16:01 34.256102 -118.437095 353 8471ft 102kts
26-Jul-18 16:02 34.284503 -118.437354 26 8895ft 108kts
26-Jul-18 16:03 34.309779 -118.419506 354 9289ft 101kts
26-Jul-18 16:04 34.336505 -118.422317 352 9818ft 95kts
26-Jul-18 16:05 34.363877 -118.425870 352 10360ft 102kts
26-Jul-18 16:06 34.392717 -118.430897 352 11026ft 122kts
26-Jul-18 16:07 34.421879 -118.414257 49 10952ft 125kts
26-Jul-18 16:08 34.441081 -118.380819 58 11032ft 130kts
26-Jul-18 16:09 34.460266 -118.342685 58 11091ft 127kts
26-Jul-18 16:10 34.477905 -118.307833 57 11000ft 121kts
26-Jul-18 16:11 34.496564 -118.274728 54 10953ft 118kts
26-Jul-18 16:12 34.515400 -118.242475 52 10938ft 116kts
26-Jul-18 16:13 34.535689 -118.211872 48 11076ft 119kts
26-Jul-18 16:14 34.557789 -118.180709 46 11051ft 120kts
26-Jul-18 16:15 34.579573 -118.149447 50 10927ft 121kts
26-Jul-18 16:16 34.599495 -118.117617 52 10904ft 117kts
26-Jul-18 16:17 34.618582 -118.086293 52 11049ft 112kts
26-Jul-18 16:18 34.632643 -118.051684 79 10888ft 127kts
26-Jul-18 16:19 34.637708 -118.012215 79 11004ft 115kts
26-Jul-18 16:20 34.641423 -117.971927 83 10969ft 117kts
26-Jul-18 16:21 34.644386 -117.934377 82 11318ft 109kts
26-Jul-18 16:22 34.649754 -117.893854 76 11529ft 134kts
26-Jul-18 16:23 34.657293 -117.849352 76 11417ft 133kts
26-Jul-18 16:24 34.664279 -117.806041 79 11450ft 130kts
26-Jul-18 16:25 34.669781 -117.763339 72 11570ft 121kts
26-Jul-18 16:26 34.680586 -117.722937 70 11556ft 126kts
26-Jul-18 16:27 34.691576 -117.681624 71 11577ft 130kts
26-Jul-18 16:28 34.702534 -117.639952 72 11300ft 127kts
26-Jul-18 16:29 34.711687 -117.601265 72 11379ft 117kts
26-Jul-18 16:30 34.720547 -117.562805 72 11473ft 121kts
26-Jul-18 16:31 34.729921 -117.523136 72 11364ft 117kts
26-Jul-18 16:32 34.738663 -117.485485 72 11554ft 116kts
26-Jul-18 16:33 34.747667 -117.446588 72 11731ft 120kts
26-Jul-18 16:34 34.756967 -117.406535 72 11510ft 121kts
26-Jul-18 16:35 34.766082 -117.367292 72 11169ft 125kts
26-Jul-18 16:36 34.774845 -117.330092 72 11349ft 104kts
26-Jul-18 16:37 34.782398 -117.297004 72 11726ft 101kts
26-Jul-18 16:38 34.789373 -117.265724 72 12643ft 96kts
26-Jul-18 16:39 34.797353 -117.229612 72 12918ft 117kts
26-Jul-18 16:40 34.805943 -117.191722 72 12972ft 118kts
26-Jul-18 16:41 34.814940 -117.151779 72 12937ft 132kts
26-Jul-18 16:42 34.824531 -117.109701 72 13013ft 119kts
26-Jul-18 16:43 34.833427 -117.070630 72 12974ft 120kts
26-Jul-18 16:44 34.843143 -117.032117 70 13033ft 121kts
26-Jul-18 16:45 34.853654 -116.991933 70 12903ft 122kts
26-Jul-18 16:46 34.863335 -116.954298 70 12998ft 114kts
26-Jul-18 16:47 34.872961 -116.916970 70 13015ft 116kts
26-Jul-18 16:48 34.883978 -116.879684 67 13160ft 122kts
26-Jul-18 16:49 34.895920 -116.841300 67 12931ft 119kts
26-Jul-18 16:50 34.906711 -116.804214 69 12994ft 116kts
26-Jul-18 16:51 34.916921 -116.766865 69 13010ft 116kts
26-Jul-18 16:52 34.926921 -116.729232 70 13012ft 118kts
26-Jul-18 16:53 34.936558 -116.688911 75 12889ft 125kts
26-Jul-18 16:54 34.944417 -116.648068 74 12866ft 124kts
26-Jul-18 16:55 34.953124 -116.607583 72 12854ft 123kts
26-Jul-18 16:56 34.964774 -116.569106 59 12923ft 118kts
26-Jul-18 16:57 34.980703 -116.533260 59 12919ft 122kts
26-Jul-18 16:58 34.997168 -116.496902 58 12888ft 122kts
26-Jul-18 16:59 35.013716 -116.460622 59 12857ft 122kts
26-Jul-18 17:00 35.029952 -116.424223 59 12848ft 120kts
26-Jul-18 17:01 35.045976 -116.388110 60 12872ft 120kts
26-Jul-18 17:02 35.061992 -116.352171 60 12888ft 120kts
26-Jul-18 17:03 35.078051 -116.316204 59 12910ft 120kts
26-Jul-18 17:04 35.093878 -116.280327 59 12951ft 120kts
26-Jul-18 17:05 35.109732 -116.244478 59 12991ft 120kts
26-Jul-18 17:06 35.125743 -116.208248 59 12985ft 121kts
26-Jul-18 17:07 35.141756 -116.172009 59 12993ft 121kts
26-Jul-18 17:08 35.157795 -116.135777 59 12998ft 121kts
26-Jul-18 17:09 35.173800 -116.099509 59 13002ft 121kts
26-Jul-18 17:10 35.189894 -116.063209 59 13000ft 121kts
26-Jul-18 17:11 35.206434 -116.026902 60 12965ft 122kts
26-Jul-18 17:12 35.221726 -115.989639 61 12933ft 122kts
26-Jul-18 17:13 35.238399 -115.953130 57 12904ft 122kts
26-Jul-18 17:14 35.255374 -115.917900 57 12963ft 120kts
26-Jul-18 17:15 35.272499 -115.882717 57 12990ft 120kts
26-Jul-18 17:16 35.289697 -115.847542 58 13016ft 120kts
26-Jul-18 17:17 35.306792 -115.811957 58 13100ft 119kts
26-Jul-18 17:18 35.326178 -115.777652 50 12950ft 128kts
26-Jul-18 17:19 35.349491 -115.742694 48 12865ft 128kts
26-Jul-18 17:20 35.371687 -115.709956 48 12502ft 120kts
26-Jul-18 17:21 35.394114 -115.678184 48 12063ft 123kts
26-Jul-18 17:22 35.415979 -115.645451 49 11578ft 120kts
26-Jul-18 17:23 35.438372 -115.613730 46 10990ft 127kts
26-Jul-18 17:24 35.462785 -115.581045 47 10458ft 130kts
26-Jul-18 17:25 35.487515 -115.547465 47 9958ft 140kts
26-Jul-18 17:26 35.511844 -115.514467 47 10045ft 117kts
26-Jul-18 17:27 35.533457 -115.484313 48 10041ft 123kts
26-Jul-18 17:28 35.557612 -115.450800 48 9894ft 124kts
26-Jul-18 17:29 35.578989 -115.420448 48 9932ft 117kts
26-Jul-18 17:30 35.600366 -115.390956 48 10024ft 115kts
26-Jul-18 17:31 35.621042 -115.361369 49 10042ft 112kts
26-Jul-18 17:32 35.641946 -115.332002 46 10023ft 117kts
26-Jul-18 17:33 35.663590 -115.302413 47 9958ft 118kts
26-Jul-18 17:34 35.687082 -115.273319 44 9694ft 120kts
26-Jul-18 17:35 35.710335 -115.243133 47 9170ft 122kts
26-Jul-18 17:36 35.734194 -115.212869 45 8475ft 126kts
26-Jul-18 17:37 35.758081 -115.182275 47 7957ft 121kts
26-Jul-18 17:38 35.782784 -115.149432 46 7381ft 132kts
26-Jul-18 17:39 35.807841 -115.116209 48 6991ft 130kts
26-Jul-18 17:40 35.830355 -115.084756 49 7055ft 118kts
26-Jul-18 17:41 35.850791 -115.054850 50 7031ft 113kts
26-Jul-18 17:42 35.872273 -115.024952 46 6941ft 121kts
26-Jul-18 17:43 35.895246 -114.997367 44 6935ft 119kts
26-Jul-18 17:44 35.918168 -114.969650 45 6987ft 112kts
26-Jul-18 17:45 35.939414 -114.940900 48 7001ft 113kts
26-Jul-18 17:46 35.961204 -114.910915 48 6681ft 124kts
26-Jul-18 17:47 35.985266 -114.879860 31 6236ft 127kts
26-Jul-18 17:48 36.019482 -114.868524 18 5730ft 128kts
26-Jul-18 17:49 36.054241 -114.859871 350 5167ft 130kts
26-Jul-18 17:50 36.075294 -114.891787 293 4963ft 128kts
26-Jul-18 17:51 36.089536 -114.930268 268 4947ft 120kts
26-Jul-18 17:52 36.075402 -114.969198 246 4343ft 128kts
26-Jul-18 17:53 36.073268 -115.012055 272 3802ft 129kts
26-Jul-18 17:54 36.076937 -115.054110 244 2869ft 88kts
26-Jul-18 17:55 36.080035 -115.082066 263 2528ft 87kts
26-Jul-18 17:56 36.073419 -115.109042 272 2761ft 105kts
26-Jul-18 17:57 36.073655 -115.135491 268 2184ft 22kts
26-Jul-18 17:58 36.074326 -115.139384 59 2184ft 0kts
26-Jul-18 17:59 36.074328 -115.139379 59 2184ft 0kts
26-Jul-18 18:00 36.074331 -115.139374 59 2184ft 0kts
26-Jul-18 18:01 36.076638 -115.137856 0 2184ft 22kts
26-Jul-18 18:02 36.078248 -115.135439 90 2184ft 13kts
26-Jul-18 18:03 36.078232 -115.130470 87 2184ft 0kts
26-Jul-18 18:04 36.078395 -115.125212 301 2184ft 4kts
26-Jul-18 18:05 36.079424 -115.125456 77 2184ft 0kts
26-Jul-18 18:06 36.079425 -115.125455 77 2184ft 0kts

Navigation Log

Ident Type
Flight plan parsing failed, navigation log unavailable